0E0

Moriarty Airport

Moriarty, New Mexico, USA
METAR K0E0 210935Z AUTO 00000KT 10SM CLR M01/M01 A3000 RMK AO2 T10151015
Observed Flight Rules
Jan-21 @ 09:35 UTC (11 minutes ago) Visual Flight Rules
Visibility Clouds
10 miles
  • Clear skies
Temperatures Readings
Current -2°C / 28°F
Dewpoint -2°C / 28°F
Humidity 100%
Altimeter 30" Hg
Pressure 1015.92 hPa
Elevation 1890
METAR K0E0 210935Z AUTO 00000KT 10SM CLR M01/M01 A3000 RMK AO2 T10151015
Observed Flight Rules
Jan-21 @ 09:35 UTC
(11 minutes ago)
VFR
Clouds
  • Clear skies
Temperature Dewpoint
-2°C / 28°F -2°C / 28°F
Humidity Altimeter Pressure
100% 30" Hg 1015.92 hPa